sensor_id;sensor_type;location;lat;lon;timestamp;pressure;altitude;pressure_sealevel;temperature;humidity
15817;BME280;8009;50.070;8.232;2022-12-26T00:01:20;99754.56;;;10.05;82.22
15817;BME280;8009;50.070;8.232;2022-12-26T00:03:49;99751.41;;;9.87;83.09
15817;BME280;8009;50.070;8.232;2022-12-26T00:06:20;99738.88;;;9.74;83.36
15817;BME280;8009;50.070;8.232;2022-12-26T00:08:49;99734.88;;;9.91;82.67
15817;BME280;8009;50.070;8.232;2022-12-26T00:11:19;99736.66;;;9.68;83.39
15817;BME280;8009;50.070;8.232;2022-12-26T00:13:52;99731.47;;;9.65;83.55
15817;BME280;8009;50.070;8.232;2022-12-26T00:16:24;99732.09;;;9.93;82.61
15817;BME280;8009;50.070;8.232;2022-12-26T00:18:53;99734.16;;;9.89;82.74
15817;BME280;8009;50.070;8.232;2022-12-26T00:21:22;99731.31;;;9.91;82.79
15817;BME280;8009;50.070;8.232;2022-12-26T00:23:52;99733.13;;;9.79;82.80
15817;BME280;8009;50.070;8.232;2022-12-26T00:26:22;99738.66;;;9.77;83.28
15817;BME280;8009;50.070;8.232;2022-12-26T00:28:52;99726.66;;;9.82;82.59
15817;BME280;8009;50.070;8.232;2022-12-26T00:31:24;99740.56;;;9.40;84.30
15817;BME280;8009;50.070;8.232;2022-12-26T00:33:53;99749.34;;;9.55;84.52
15817;BME280;8009;50.070;8.232;2022-12-26T00:36:24;99745.94;;;9.64;83.63
15817;BME280;8009;50.070;8.232;2022-12-26T00:38:54;99762.59;;;9.58;83.50
15817;BME280;8009;50.070;8.232;2022-12-26T00:41:23;99744.97;;;9.65;83.89
15817;BME280;8009;50.070;8.232;2022-12-26T00:43:51;99752.72;;;9.22;85.48
15817;BME280;8009;50.070;8.232;2022-12-26T00:46:23;99738.63;;;9.66;84.42
15817;BME280;8009;50.070;8.232;2022-12-26T00:48:51;99740.22;;;9.45;84.83
15817;BME280;8009;50.070;8.232;2022-12-26T00:51:20;99726.88;;;9.43;84.46
15817;BME280;8009;50.070;8.232;2022-12-26T00:53:48;99726.00;;;9.67;84.19
15817;BME280;8009;50.070;8.232;2022-12-26T00:56:19;99741.56;;;9.39;84.40
15817;BME280;8009;50.070;8.232;2022-12-26T00:58:47;99729.53;;;9.32;84.12
15817;BME280;8009;50.070;8.232;2022-12-26T01:01:18;99744.59;;;9.59;83.79
15817;BME280;8009;50.070;8.232;2022-12-26T01:03:50;99755.66;;;9.43;84.35
15817;BME280;8009;50.070;8.232;2022-12-26T01:06:18;99748.78;;;9.39;84.37
15817;BME280;8009;50.070;8.232;2022-12-26T01:08:46;99749.28;;;9.68;83.28
15817;BME280;8009;50.070;8.232;2022-12-26T01:11:15;99737.50;;;9.69;83.40
15817;BME280;8009;50.070;8.232;2022-12-26T01:14:05;99747.47;;;9.80;82.97
15817;BME280;8009;50.070;8.232;2022-12-26T01:16:34;99752.50;;;9.84;82.56
15817;BME280;8009;50.070;8.232;2022-12-26T01:19:05;99743.53;;;9.72;82.93
15817;BME280;8009;50.070;8.232;2022-12-26T01:21:33;99742.56;;;9.73;83.17
15817;BME280;8009;50.070;8.232;2022-12-26T01:24:01;99745.53;;;9.58;84.04
15817;BME280;8009;50.070;8.232;2022-12-26T01:26:30;99742.16;;;9.67;83.04
15817;BME280;8009;50.070;8.232;2022-12-26T01:28:58;99752.13;;;9.77;82.60
15817;BME280;8009;50.070;8.232;2022-12-26T01:31:27;99747.59;;;9.78;82.32
15817;BME280;8009;50.070;8.232;2022-12-26T01:33:55;99766.78;;;9.62;83.00
15817;BME280;8009;50.070;8.232;2022-12-26T01:36:26;99770.47;;;9.72;82.71
15817;BME280;8009;50.070;8.232;2022-12-26T01:38:54;99774.28;;;9.46;83.53
15817;BME280;8009;50.070;8.232;2022-12-26T01:41:22;99783.56;;;9.42;83.55
15817;BME280;8009;50.070;8.232;2022-12-26T01:43:55;99774.28;;;9.22;84.41
15817;BME280;8009;50.070;8.232;2022-12-26T01:46:27;99770.00;;;9.43;84.15
15817;BME280;8009;50.070;8.232;2022-12-26T01:48:59;99769.47;;;9.38;84.56
15817;BME280;8009;50.070;8.232;2022-12-26T01:51:32;99789.94;;;9.41;83.91
15817;BME280;8009;50.070;8.232;2022-12-26T01:54:07;99791.31;;;9.70;82.58
15817;BME280;8009;50.070;8.232;2022-12-26T01:56:39;99786.97;;;9.57;83.52
15817;BME280;8009;50.070;8.232;2022-12-26T01:59:11;99787.59;;;9.36;83.72
15817;BME280;8009;50.070;8.232;2022-12-26T02:01:43;99791.69;;;9.66;82.96
15817;BME280;8009;50.070;8.232;2022-12-26T02:04:14;99789.09;;;9.40;83.80
15817;BME280;8009;50.070;8.232;2022-12-26T02:06:59;99786.22;;;9.55;83.53
15817;BME280;8009;50.070;8.232;2022-12-26T02:09:27;99789.25;;;9.74;82.68
15817;BME280;8009;50.070;8.232;2022-12-26T02:12:01;99783.63;;;9.77;82.22
15817;BME280;8009;50.070;8.232;2022-12-26T02:14:32;99807.38;;;9.72;82.44
15817;BME280;8009;50.070;8.232;2022-12-26T02:17:00;99801.41;;;9.80;82.35
15817;BME280;8009;50.070;8.232;2022-12-26T02:19:36;99806.88;;;9.43;83.30
15817;BME280;8009;50.070;8.232;2022-12-26T02:22:52;99806.66;;;9.70;82.51
15817;BME280;8009;50.070;8.232;2022-12-26T02:25:48;99807.78;;;9.79;82.36
15817;BME280;8009;50.070;8.232;2022-12-26T02:28:38;99810.28;;;9.93;81.76
15817;BME280;8009;50.070;8.232;2022-12-26T02:31:18;99799.41;;;9.70;82.38
15817;BME280;8009;50.070;8.232;2022-12-26T02:33:59;99792.06;;;9.48;83.69
15817;BME280;8009;50.070;8.232;2022-12-26T02:36:45;99802.78;;;9.61;83.25
15817;BME280;8009;50.070;8.232;2022-12-26T02:39:31;99801.41;;;9.56;83.46
15817;BME280;8009;50.070;8.232;2022-12-26T02:42:12;99796.66;;;9.35;84.32
15817;BME280;8009;50.070;8.232;2022-12-26T02:44:51;99810.84;;;9.74;83.04
15817;BME280;8009;50.070;8.232;2022-12-26T02:47:41;99798.28;;;9.62;82.91
15817;BME280;8009;50.070;8.232;2022-12-26T02:50:15;99803.16;;;9.81;82.67
15817;BME280;8009;50.070;8.232;2022-12-26T02:53:07;99796.94;;;9.67;83.07
15817;BME280;8009;50.070;8.232;2022-12-26T02:55:53;99796.44;;;9.62;82.94
15817;BME280;8009;50.070;8.232;2022-12-26T02:58:41;99787.59;;;9.60;83.21
15817;BME280;8009;50.070;8.232;2022-12-26T03:01:27;99778.94;;;9.68;82.65
15817;BME280;8009;50.070;8.232;2022-12-26T03:04:15;99784.22;;;9.69;83.03
15817;BME280;8009;50.070;8.232;2022-12-26T03:07:00;99790.75;;;9.78;82.49
15817;BME280;8009;50.070;8.232;2022-12-26T03:09:43;99785.88;;;9.59;83.14
15817;BME280;8009;50.070;8.232;2022-12-26T03:12:34;99782.38;;;9.70;82.88
15817;BME280;8009;50.070;8.232;2022-12-26T03:15:18;99799.09;;;9.86;82.43
15817;BME280;8009;50.070;8.232;2022-12-26T03:17:49;99778.97;;;9.79;82.37
15817;BME280;8009;50.070;8.232;2022-12-26T03:20:20;99779.03;;;9.90;82.06
15817;BME280;8009;50.070;8.232;2022-12-26T03:22:53;99785.03;;;9.94;82.02
15817;BME280;8009;50.070;8.232;2022-12-26T03:25:26;99789.25;;;9.74;82.46
15817;BME280;8009;50.070;8.232;2022-12-26T03:28:11;99794.16;;;9.80;82.30
15817;BME280;8009;50.070;8.232;2022-12-26T03:30:40;99793.34;;;9.91;81.99
15817;BME280;8009;50.070;8.232;2022-12-26T03:33:15;99775.25;;;9.93;81.62
15817;BME280;8009;50.070;8.232;2022-12-26T03:35:59;99774.72;;;9.88;81.73
15817;BME280;8009;50.070;8.232;2022-12-26T03:38:33;99764.06;;;9.86;82.14
15817;BME280;8009;50.070;8.232;2022-12-26T03:41:07;99778.13;;;9.79;81.78
15817;BME280;8009;50.070;8.232;2022-12-26T03:44:03;99774.47;;;9.91;82.05
15817;BME280;8009;50.070;8.232;2022-12-26T03:46:58;99766.25;;;9.81;82.12
15817;BME280;8009;50.070;8.232;2022-12-26T03:49:45;99756.34;;;9.93;81.72
15817;BME280;8009;50.070;8.232;2022-12-26T03:52:35;99763.34;;;9.95;81.41
15817;BME280;8009;50.070;8.232;2022-12-26T03:55:24;99766.53;;;9.89;82.09
15817;BME280;8009;50.070;8.232;2022-12-26T03:58:13;99766.91;;;9.96;81.80
15817;BME280;8009;50.070;8.232;2022-12-26T04:00:58;99764.81;;;9.88;81.82
15817;BME280;8009;50.070;8.232;2022-12-26T04:03:41;99762.94;;;9.77;82.02
15817;BME280;8009;50.070;8.232;2022-12-26T04:06:26;99751.75;;;9.71;82.00
15817;BME280;8009;50.070;8.232;2022-12-26T04:09:16;99767.06;;;9.70;81.86
15817;BME280;8009;50.070;8.232;2022-12-26T04:12:00;99773.59;;;9.55;82.46
15817;BME280;8009;50.070;8.232;2022-12-26T04:14:45;99788.63;;;9.46;83.16
15817;BME280;8009;50.070;8.232;2022-12-26T04:17:31;99790.56;;;9.68;82.16
15817;BME280;8009;50.070;8.232;2022-12-26T04:20:28;99795.03;;;9.57;82.65
15817;BME280;8009;50.070;8.232;2022-12-26T04:23:02;99791.94;;;9.50;82.84
15817;BME280;8009;50.070;8.232;2022-12-26T04:25:51;99797.44;;;9.48;83.33
15817;BME280;8009;50.070;8.232;2022-12-26T04:28:34;99813.06;;;9.19;84.63
15817;BME280;8009;50.070;8.232;2022-12-26T04:31:21;99822.28;;;9.65;83.05
15817;BME280;8009;50.070;8.232;2022-12-26T04:34:08;99826.84;;;9.88;82.19
15817;BME280;8009;50.070;8.232;2022-12-26T04:36:55;99819.66;;;9.76;82.58
15817;BME280;8009;50.070;8.232;2022-12-26T04:39:39;99815.06;;;9.89;82.11
15817;BME280;8009;50.070;8.232;2022-12-26T04:42:26;99807.50;;;9.70;82.63
15817;BME280;8009;50.070;8.232;2022-12-26T04:45:09;99810.69;;;9.75;82.53
15817;BME280;8009;50.070;8.232;2022-12-26T04:47:39;99808.06;;;9.87;82.30
15817;BME280;8009;50.070;8.232;2022-12-26T04:50:28;99798.88;;;9.89;82.34
15817;BME280;8009;50.070;8.232;2022-12-26T04:52:54;99782.88;;;9.75;82.55
15817;BME280;8009;50.070;8.232;2022-12-26T04:55:23;99773.50;;;9.92;82.04
15817;BME280;8009;50.070;8.232;2022-12-26T04:57:54;99788.91;;;9.79;82.52
15817;BME280;8009;50.070;8.232;2022-12-26T05:00:27;99778.97;;;9.79;83.00
15817;BME280;8009;50.070;8.232;2022-12-26T05:02:56;99766.88;;;9.85;82.37
15817;BME280;8009;50.070;8.232;2022-12-26T05:05:39;99756.31;;;9.82;82.56
15817;BME280;8009;50.070;8.232;2022-12-26T05:08:35;99761.34;;;9.86;82.21
15817;BME280;8009;50.070;8.232;2022-12-26T05:11:16;99772.94;;;9.75;82.74
15817;BME280;8009;50.070;8.232;2022-12-26T05:13:47;99775.59;;;9.88;82.46
15817;BME280;8009;50.070;8.232;2022-12-26T05:16:15;99779.47;;;9.84;82.46
15817;BME280;8009;50.070;8.232;2022-12-26T05:18:56;99789.53;;;9.82;82.76
15817;BME280;8009;50.070;8.232;2022-12-26T05:21:37;99778.06;;;9.67;83.30
15817;BME280;8009;50.070;8.232;2022-12-26T05:24:18;99790.25;;;9.73;83.40
15817;BME280;8009;50.070;8.232;2022-12-26T05:26:59;99781.56;;;9.81;83.04
15817;BME280;8009;50.070;8.232;2022-12-26T05:29:42;99783.28;;;9.82;82.78
15817;BME280;8009;50.070;8.232;2022-12-26T05:32:11;99795.91;;;9.81;82.92
15817;BME280;8009;50.070;8.232;2022-12-26T05:34:51;99798.69;;;9.80;82.93
15817;BME280;8009;50.070;8.232;2022-12-26T05:37:19;99790.97;;;9.75;83.14
15817;BME280;8009;50.070;8.232;2022-12-26T05:39:48;99786.28;;;10.01;82.42
15817;BME280;8009;50.070;8.232;2022-12-26T05:42:16;99790.69;;;10.02;82.27
15817;BME280;8009;50.070;8.232;2022-12-26T05:44:47;99783.00;;;10.09;82.42
15817;BME280;8009;50.070;8.232;2022-12-26T05:47:15;99786.25;;;10.25;81.67
15817;BME280;8009;50.070;8.232;2022-12-26T05:49:44;99797.06;;;10.25;81.75
15817;BME280;8009;50.070;8.232;2022-12-26T05:52:12;99799.56;;;10.04;82.52
15817;BME280;8009;50.070;8.232;2022-12-26T05:54:40;99802.34;;;10.02;82.57
15817;BME280;8009;50.070;8.232;2022-12-26T05:57:08;99791.97;;;10.09;82.41
15817;BME280;8009;50.070;8.232;2022-12-26T05:59:37;99795.41;;;10.11;82.12
15817;BME280;8009;50.070;8.232;2022-12-26T06:02:08;99809.25;;;10.18;81.97
15817;BME280;8009;50.070;8.232;2022-12-26T06:04:36;99810.88;;;10.20;81.68
15817;BME280;8009;50.070;8.232;2022-12-26T06:07:04;99814.56;;;10.19;81.57
15817;BME280;8009;50.070;8.232;2022-12-26T06:09:33;99825.44;;;10.18;82.01
15817;BME280;8009;50.070;8.232;2022-12-26T06:12:01;99822.72;;;10.07;81.97
15817;BME280;8009;50.070;8.232;2022-12-26T06:14:29;99822.34;;;10.00;82.78
15817;BME280;8009;50.070;8.232;2022-12-26T06:16:58;99823.34;;;10.10;82.28
15817;BME280;8009;50.070;8.232;2022-12-26T06:19:29;99831.25;;;9.89;83.00
15817;BME280;8009;50.070;8.232;2022-12-26T06:21:57;99832.59;;;10.19;82.12
15817;BME280;8009;50.070;8.232;2022-12-26T06:24:25;99832.28;;;10.11;82.41
15817;BME280;8009;50.070;8.232;2022-12-26T06:26:54;99836.72;;;10.12;82.66
15817;BME280;8009;50.070;8.232;2022-12-26T06:29:22;99831.16;;;10.26;81.78
15817;BME280;8009;50.070;8.232;2022-12-26T06:31:51;99832.88;;;10.27;81.70
15817;BME280;8009;50.070;8.232;2022-12-26T06:34:19;99804.09;;;10.15;82.12
15817;BME280;8009;50.070;8.232;2022-12-26T06:36:56;99802.22;;;10.28;81.73
15817;BME280;8009;50.070;8.232;2022-12-26T06:39:37;99809.88;;;10.21;82.08
15817;BME280;8009;50.070;8.232;2022-12-26T06:42:05;99818.44;;;10.04;82.73
15817;BME280;8009;50.070;8.232;2022-12-26T06:44:34;99799.59;;;10.15;82.16
15817;BME280;8009;50.070;8.232;2022-12-26T06:47:02;99794.66;;;10.09;82.53
15817;BME280;8009;50.070;8.232;2022-12-26T06:49:31;99797.25;;;10.22;81.92
15817;BME280;8009;50.070;8.232;2022-12-26T06:52:01;99810.19;;;10.30;81.82
15817;BME280;8009;50.070;8.232;2022-12-26T06:54:32;99820.44;;;10.24;82.06
15817;BME280;8009;50.070;8.232;2022-12-26T06:57:01;99817.25;;;10.19;82.08
15817;BME280;8009;50.070;8.232;2022-12-26T06:59:29;99817.72;;;10.13;82.44
15817;BME280;8009;50.070;8.232;2022-12-26T07:01:57;99809.84;;;10.10;82.16
15817;BME280;8009;50.070;8.232;2022-12-26T07:04:26;99807.69;;;10.15;82.31
15817;BME280;8009;50.070;8.232;2022-12-26T07:06:54;99816.09;;;10.11;82.37
15817;BME280;8009;50.070;8.232;2022-12-26T07:09:25;99810.03;;;10.20;82.18
15817;BME280;8009;50.070;8.232;2022-12-26T07:11:53;99815.28;;;10.21;82.28
15817;BME280;8009;50.070;8.232;2022-12-26T07:14:23;99826.50;;;10.28;81.77
15817;BME280;8009;50.070;8.232;2022-12-26T07:16:51;99837.09;;;10.18;82.47
15817;BME280;8009;50.070;8.232;2022-12-26T07:19:20;99846.66;;;10.11;82.74
15817;BME280;8009;50.070;8.232;2022-12-26T07:21:49;99858.84;;;9.93;83.59
15817;BME280;8009;50.070;8.232;2022-12-26T07:24:19;99864.97;;;9.95;83.86
15817;BME280;8009;50.070;8.232;2022-12-26T07:26:50;99861.69;;;10.02;83.81
15817;BME280;8009;50.070;8.232;2022-12-26T07:29:20;99869.16;;;10.23;82.75
15817;BME280;8009;50.070;8.232;2022-12-26T07:31:48;99874.66;;;10.21;82.68
15817;BME280;8009;50.070;8.232;2022-12-26T07:34:17;99871.53;;;10.15;83.53
15817;BME280;8009;50.070;8.232;2022-12-26T07:36:45;99869.16;;;10.23;83.02
15817;BME280;8009;50.070;8.232;2022-12-26T07:39:14;99869.59;;;10.17;83.47
15817;BME280;8009;50.070;8.232;2022-12-26T07:41:42;99864.94;;;10.08;83.78
15817;BME280;8009;50.070;8.232;2022-12-26T07:44:29;99865.78;;;10.08;83.85
15817;BME280;8009;50.070;8.232;2022-12-26T07:46:59;99864.97;;;10.19;83.84
15817;BME280;8009;50.070;8.232;2022-12-26T07:49:27;99866.41;;;10.12;84.06
15817;BME280;8009;50.070;8.232;2022-12-26T07:51:56;99860.44;;;10.19;83.87
15817;BME280;8009;50.070;8.232;2022-12-26T07:54:26;99862.28;;;10.19;84.00
15817;BME280;8009;50.070;8.232;2022-12-26T07:56:56;99855.38;;;10.39;83.60
15817;BME280;8009;50.070;8.232;2022-12-26T07:59:25;99855.13;;;10.42;83.11
15817;BME280;8009;50.070;8.232;2022-12-26T08:01:56;99844.97;;;10.45;83.38
15817;BME280;8009;50.070;8.232;2022-12-26T08:04:27;99844.69;;;10.48;83.33
15817;BME280;8009;50.070;8.232;2022-12-26T08:06:57;99840.25;;;10.36;83.88
15817;BME280;8009;50.070;8.232;2022-12-26T08:09:26;99827.38;;;10.40;83.62
15817;BME280;8009;50.070;8.232;2022-12-26T08:11:54;99823.00;;;10.50;84.09
15817;BME280;8009;50.070;8.232;2022-12-26T08:14:22;99819.28;;;10.40;84.09
15817;BME280;8009;50.070;8.232;2022-12-26T08:16:51;99828.88;;;10.44;83.66
15817;BME280;8009;50.070;8.232;2022-12-26T08:19:22;99838.34;;;10.49;82.88
15817;BME280;8009;50.070;8.232;2022-12-26T08:21:50;99844.84;;;10.47;83.06
15817;BME280;8009;50.070;8.232;2022-12-26T08:24:18;99851.56;;;10.41;83.42
15817;BME280;8009;50.070;8.232;2022-12-26T08:26:49;99849.56;;;10.32;84.08
15817;BME280;8009;50.070;8.232;2022-12-26T08:29:17;99840.25;;;10.36;84.11
15817;BME280;8009;50.070;8.232;2022-12-26T08:31:46;99834.16;;;10.21;84.92
15817;BME280;8009;50.070;8.232;2022-12-26T08:34:14;99847.31;;;10.50;84.12
15817;BME280;8009;50.070;8.232;2022-12-26T08:36:45;99875.09;;;10.28;84.80
15817;BME280;8009;50.070;8.232;2022-12-26T08:39:13;99884.06;;;10.40;84.30
15817;BME280;8009;50.070;8.232;2022-12-26T08:41:42;99872.81;;;10.46;83.56
15817;BME280;8009;50.070;8.232;2022-12-26T08:44:10;99868.03;;;10.49;83.81
15817;BME280;8009;50.070;8.232;2022-12-26T08:46:42;99885.97;;;10.62;83.72
15817;BME280;8009;50.070;8.232;2022-12-26T08:49:10;99910.03;;;10.54;83.84
15817;BME280;8009;50.070;8.232;2022-12-26T08:51:40;99910.03;;;10.54;83.95
15817;BME280;8009;50.070;8.232;2022-12-26T08:54:10;99914.19;;;10.58;83.83
15817;BME280;8009;50.070;8.232;2022-12-26T08:56:39;99921.91;;;10.51;84.00
15817;BME280;8009;50.070;8.232;2022-12-26T08:59:07;99916.78;;;10.59;83.94
15817;BME280;8009;50.070;8.232;2022-12-26T09:01:35;99922.94;;;10.61;83.81
15817;BME280;8009;50.070;8.232;2022-12-26T09:04:04;99922.06;;;10.61;83.91
15817;BME280;8009;50.070;8.232;2022-12-26T09:06:35;99934.31;;;10.54;84.49
15817;BME280;8009;50.070;8.232;2022-12-26T09:09:06;99925.63;;;10.61;83.81
15817;BME280;8009;50.070;8.232;2022-12-26T09:11:38;99935.22;;;10.65;84.11
15817;BME280;8009;50.070;8.232;2022-12-26T09:14:07;99933.88;;;10.71;83.88
15817;BME280;8009;50.070;8.232;2022-12-26T09:16:39;99942.00;;;10.47;84.83
15817;BME280;8009;50.070;8.232;2022-12-26T09:19:20;99941.88;;;10.48;84.81
15817;BME280;8009;50.070;8.232;2022-12-26T09:21:54;99954.38;;;10.73;84.05
15817;BME280;8009;50.070;8.232;2022-12-26T09:24:35;99944.53;;;10.61;84.61
15817;BME280;8009;50.070;8.232;2022-12-26T09:27:09;99948.72;;;10.65;84.38
15817;BME280;8009;50.070;8.232;2022-12-26T09:29:38;99946.28;;;10.73;83.55
15817;BME280;8009;50.070;8.232;2022-12-26T09:32:08;99941.75;;;10.85;83.49
15817;BME280;8009;50.070;8.232;2022-12-26T09:34:36;99937.00;;;11.00;82.92
15817;BME280;8009;50.070;8.232;2022-12-26T09:37:04;99922.88;;;10.96;83.03
15817;BME280;8009;50.070;8.232;2022-12-26T09:39:33;99924.13;;;11.04;82.96
15817;BME280;8009;50.070;8.232;2022-12-26T09:42:12;99925.56;;;10.85;83.66
15817;BME280;8009;50.070;8.232;2022-12-26T09:44:50;99946.19;;;10.86;83.86
15817;BME280;8009;50.070;8.232;2022-12-26T09:47:29;99979.00;;;11.04;83.00
15817;BME280;8009;50.070;8.232;2022-12-26T09:50:08;99984.53;;;11.03;82.59
15817;BME280;8009;50.070;8.232;2022-12-26T09:52:42;99981.31;;;10.97;82.83
15817;BME280;8009;50.070;8.232;2022-12-26T09:55:23;99953.06;;;10.90;83.54
15817;BME280;8009;50.070;8.232;2022-12-26T09:57:58;99972.22;;;10.98;83.54
15817;BME280;8009;50.070;8.232;2022-12-26T10:00:36;99968.81;;;10.96;83.53
15817;BME280;8009;50.070;8.232;2022-12-26T10:03:07;99951.41;;;11.12;83.05
15817;BME280;8009;50.070;8.232;2022-12-26T10:05:39;99946.09;;;11.10;83.22
15817;BME280;8009;50.070;8.232;2022-12-26T10:08:21;99939.19;;;10.95;84.07
15817;BME280;8009;50.070;8.232;2022-12-26T10:10:56;99954.72;;;11.15;83.06
15817;BME280;8009;50.070;8.232;2022-12-26T10:13:33;99944.38;;;11.20;83.23
15817;BME280;8009;50.070;8.232;2022-12-26T10:16:08;99932.72;;;11.20;83.19
15817;BME280;8009;50.070;8.232;2022-12-26T10:18:46;99932.84;;;11.07;83.37
15817;BME280;8009;50.070;8.232;2022-12-26T10:21:29;99957.53;;;11.14;83.56
15817;BME280;8009;50.070;8.232;2022-12-26T10:24:08;99956.78;;;11.01;84.00
15817;BME280;8009;50.070;8.232;2022-12-26T10:26:42;99965.91;;;11.22;83.44
15817;BME280;8009;50.070;8.232;2022-12-26T10:29:19;99958.53;;;11.35;83.03
15817;BME280;8009;50.070;8.232;2022-12-26T10:31:51;99953.25;;;11.22;83.72
15817;BME280;8009;50.070;8.232;2022-12-26T10:34:22;99954.97;;;11.35;83.50
15817;BME280;8009;50.070;8.232;2022-12-26T10:36:56;99960.16;;;11.38;83.15
15817;BME280;8009;50.070;8.232;2022-12-26T10:39:38;99962.47;;;11.31;83.68
15817;BME280;8009;50.070;8.232;2022-12-26T10:42:13;99964.19;;;11.32;83.40
15817;BME280;8009;50.070;8.232;2022-12-26T10:44:48;99960.00;;;11.28;83.78
15817;BME280;8009;50.070;8.232;2022-12-26T10:47:25;99962.25;;;11.45;83.05
15817;BME280;8009;50.070;8.232;2022-12-26T10:49:54;99971.44;;;11.54;82.76
15817;BME280;8009;50.070;8.232;2022-12-26T10:52:27;99971.44;;;11.54;82.67
15817;BME280;8009;50.070;8.232;2022-12-26T10:54:58;99980.31;;;11.45;83.10
15817;BME280;8009;50.070;8.232;2022-12-26T10:57:28;99980.31;;;11.45;83.28
15817;BME280;8009;50.070;8.232;2022-12-26T11:00:00;99989.75;;;11.51;82.78
15817;BME280;8009;50.070;8.232;2022-12-26T11:02:32;99985.72;;;11.56;82.93
15817;BME280;8009;50.070;8.232;2022-12-26T11:05:07;99986.19;;;11.50;82.92
15817;BME280;8009;50.070;8.232;2022-12-26T11:07:37;99994.16;;;11.40;83.55
15817;BME280;8009;50.070;8.232;2022-12-26T11:10:15;99993.44;;;11.50;83.40
15817;BME280;8009;50.070;8.232;2022-12-26T11:12:46;99980.31;;;11.56;82.96
15817;BME280;8009;50.070;8.232;2022-12-26T11:15:30;99991.97;;;11.57;83.33
15817;BME280;8009;50.070;8.232;2022-12-26T11:18:16;99986.31;;;11.37;83.74
15817;BME280;8009;50.070;8.232;2022-12-26T11:20:46;99990.97;;;11.24;83.60
15817;BME280;8009;50.070;8.232;2022-12-26T11:26:23;99989.13;;;11.36;83.66
15817;BME280;8009;50.070;8.232;2022-12-26T11:35:22;100000.56;;;11.51;83.13
15817;BME280;8009;50.070;8.232;2022-12-26T11:47:15;100005.75;;;11.76;81.64
15817;BME280;8009;50.070;8.232;2022-12-26T11:49:58;99995.03;;;11.75;81.39
15817;BME280;8009;50.070;8.232;2022-12-26T11:59:06;99994.69;;;11.68;81.44
15817;BME280;8009;50.070;8.232;2022-12-26T12:01:40;99993.84;;;11.56;81.27
15817;BME280;8009;50.070;8.232;2022-12-26T12:07:12;99974.75;;;11.69;81.21
15817;BME280;8009;50.070;8.232;2022-12-26T12:39:33;99954.84;;;11.70;81.06
15817;BME280;8009;50.070;8.232;2022-12-26T12:42:19;99955.94;;;11.79;80.52
15817;BME280;8009;50.070;8.232;2022-12-26T12:44:58;99954.00;;;11.58;80.99
15817;BME280;8009;50.070;8.232;2022-12-26T12:47:42;99965.44;;;11.51;81.79
15817;BME280;8009;50.070;8.232;2022-12-26T12:50:21;99961.63;;;11.76;80.98
15817;BME280;8009;50.070;8.232;2022-12-26T12:53:15;99951.78;;;11.86;80.43
15817;BME280;8009;50.070;8.232;2022-12-26T12:59:00;99950.91;;;11.29;82.11
15817;BME280;8009;50.070;8.232;2022-12-26T13:01:35;99947.09;;;11.65;81.34
15817;BME280;8009;50.070;8.232;2022-12-26T13:04:16;99948.94;;;11.76;80.26
15817;BME280;8009;50.070;8.232;2022-12-26T13:06:48;99941.22;;;11.71;80.91
15817;BME280;8009;50.070;8.232;2022-12-26T13:09:20;99933.81;;;11.96;79.76
15817;BME280;8009;50.070;8.232;2022-12-26T13:11:56;99937.50;;;11.95;79.56
15817;BME280;8009;50.070;8.232;2022-12-26T13:14:30;99926.16;;;11.79;79.31
15817;BME280;8009;50.070;8.232;2022-12-26T13:17:03;99926.72;;;11.84;79.07
15817;BME280;8009;50.070;8.232;2022-12-26T13:19:39;99934.91;;;11.60;79.00
15817;BME280;8009;50.070;8.232;2022-12-26T13:22:25;99940.69;;;11.78;78.79
15817;BME280;8009;50.070;8.232;2022-12-26T13:25:14;99937.75;;;11.92;78.53
15817;BME280;8009;50.070;8.232;2022-12-26T13:30:54;99924.22;;;11.92;78.63
15817;BME280;8009;50.070;8.232;2022-12-26T13:33:23;99934.69;;;11.63;78.46
15817;BME280;8009;50.070;8.232;2022-12-26T13:35:54;99935.31;;;11.55;80.89
15817;BME280;8009;50.070;8.232;2022-12-26T13:38:24;99955.44;;;11.17;83.03
15817;BME280;8009;50.070;8.232;2022-12-26T13:40:56;99953.13;;;10.66;86.35
15817;BME280;8009;50.070;8.232;2022-12-26T13:44:03;99941.25;;;10.45;87.82
15817;BME280;8009;50.070;8.232;2022-12-26T13:46:53;99953.00;;;10.33;87.69
15817;BME280;8009;50.070;8.232;2022-12-26T13:49:29;99947.56;;;10.57;87.00
15817;BME280;8009;50.070;8.232;2022-12-26T13:52:31;99942.53;;;11.10;84.50
15817;BME280;8009;50.070;8.232;2022-12-26T13:55:27;99940.19;;;11.05;84.82
15817;BME280;8009;50.070;8.232;2022-12-26T13:58:18;99936.03;;;11.12;84.54
15817;BME280;8009;50.070;8.232;2022-12-26T14:01:03;99943.88;;;11.04;85.31
15817;BME280;8009;50.070;8.232;2022-12-26T14:03:46;99949.81;;;11.32;84.08
15817;BME280;8009;50.070;8.232;2022-12-26T14:09:27;99937.38;;;10.95;85.25
15817;BME280;8009;50.070;8.232;2022-12-26T14:12:12;99949.69;;;11.22;84.31
15817;BME280;8009;50.070;8.232;2022-12-26T14:14:58;99959.53;;;11.23;84.00
15817;BME280;8009;50.070;8.232;2022-12-26T14:17:37;99964.06;;;11.11;84.00
15817;BME280;8009;50.070;8.232;2022-12-26T14:20:20;99965.00;;;10.99;83.61
15817;BME280;8009;50.070;8.232;2022-12-26T14:23:01;99951.69;;;10.73;85.28
15817;BME280;8009;50.070;8.232;2022-12-26T14:25:46;99940.91;;;10.85;83.32
15817;BME280;8009;50.070;8.232;2022-12-26T14:28:20;99952.06;;;10.80;82.48
15817;BME280;8009;50.070;8.232;2022-12-26T14:30:58;99956.34;;;10.83;82.54
15817;BME280;8009;50.070;8.232;2022-12-26T14:33:35;99959.03;;;10.71;82.12
15817;BME280;8009;50.070;8.232;2022-12-26T14:36:18;99949.97;;;10.48;82.83
15817;BME280;8009;50.070;8.232;2022-12-26T14:38:54;99956.59;;;10.44;82.87
15817;BME280;8009;50.070;8.232;2022-12-26T14:41:25;99950.50;;;10.54;82.19
15817;BME280;8009;50.070;8.232;2022-12-26T14:47:08;99977.19;;;10.69;81.07
15817;BME280;8009;50.070;8.232;2022-12-26T14:49:40;99957.66;;;10.66;82.35
15817;BME280;8009;50.070;8.232;2022-12-26T14:52:35;99965.22;;;10.49;83.27
15817;BME280;8009;50.070;8.232;2022-12-26T14:58:25;99959.94;;;10.48;81.96
15817;BME280;8009;50.070;8.232;2022-12-26T15:01:02;99967.97;;;10.72;78.97
15817;BME280;8009;50.070;8.232;2022-12-26T15:03:50;99987.09;;;10.93;78.92
15817;BME280;8009;50.070;8.232;2022-12-26T15:09:40;99984.72;;;10.77;80.18
15817;BME280;8009;50.070;8.232;2022-12-26T15:15:30;99980.03;;;10.79;78.37
15817;BME280;8009;50.070;8.232;2022-12-26T15:21:23;99981.69;;;10.58;79.72